N65JT KLIT-M19
Flight info
| Callsign | N65JT |
|---|---|
| Flight time | N/A |
| Altitude | 3500 |
| Route | BRAUM UKORE |
| Aircraft | EFOX/L-V/N |
Departure
| Time | 2026-04-26 21:08 |
|---|---|
| Airport | Bill & Hillary Clinton National Airport/Adams Field (KLIT) |
Arrival
| Time | N/A |
|---|---|
| Airport | M19 |
| Time | Latitude | Longitude | Altitude | Speed | Heading |
|---|---|---|---|---|---|
| 2026-04-26 21:03 | 34.73165 | -92.24097 | 257 ft | 0 kts | 1° |
| 2026-04-26 21:05 | 34.73169 | -92.24096 | 257 ft | 3 kts | 21° |
| 2026-04-26 21:05 | 34.73218 | -92.24064 | 257 ft | 12 kts | 32° |
| 2026-04-26 21:06 | 34.73276 | -92.23986 | 257 ft | 12 kts | 15° |
| 2026-04-26 21:06 | 34.73365 | -92.23975 | 257 ft | 12 kts | 4° |
| 2026-04-26 21:06 | 34.73451 | -92.23967 | 257 ft | 12 kts | 3° |
| 2026-04-26 21:06 | 34.73546 | -92.23962 | 256 ft | 14 kts | 1° |
| 2026-04-26 21:07 | 34.73642 | -92.23951 | 256 ft | 13 kts | 26° |
| 2026-04-26 21:07 | 34.73667 | -92.23906 | 255 ft | 0 kts | 84° |
| 2026-04-26 21:07 | 34.73667 | -92.23878 | 255 ft | 8 kts | 102° |
| 2026-04-26 21:07 | 34.73544 | -92.23820 | 254 ft | 45 kts | 178° |
| 2026-04-26 21:08 | 34.73192 | -92.23846 | 525 ft | 62 kts | 183° |
| 2026-04-26 21:08 | 34.72690 | -92.23901 | 780 ft | 79 kts | 181° |
| 2026-04-26 21:08 | 34.72127 | -92.23945 | 1081 ft | 85 kts | 183° |
| 2026-04-26 21:08 | 34.71541 | -92.24046 | 1420 ft | 83 kts | 184° |
| 2026-04-26 21:09 | 34.70995 | -92.24132 | 1726 ft | 78 kts | 183° |
| 2026-04-26 21:09 | 34.70438 | -92.24209 | 1968 ft | 81 kts | 176° |
| 2026-04-26 21:09 | 34.69936 | -92.23981 | 2216 ft | 79 kts | 138° |
| 2026-04-26 21:09 | 34.69705 | -92.23379 | 2396 ft | 88 kts | 73° |
| 2026-04-26 21:10 | 34.70166 | -92.22850 | 2583 ft | 96 kts | 38° |
| 2026-04-26 21:10 | 34.70735 | -92.22319 | 2601 ft | 108 kts | 44° |
| 2026-04-26 21:10 | 34.71330 | -92.21685 | 2569 ft | 114 kts | 43° |
| 2026-04-26 21:10 | 34.71854 | -92.21073 | 2735 ft | 104 kts | 48° |
| 2026-04-26 21:11 | 34.72360 | -92.20466 | 2878 ft | 100 kts | 47° |
| 2026-04-26 21:11 | 34.72844 | -92.19867 | 3016 ft | 100 kts | 48° |
| 2026-04-26 21:11 | 34.73337 | -92.19293 | 3177 ft | 97 kts | 45° |
| 2026-04-26 21:11 | 34.73825 | -92.18717 | 3302 ft | 99 kts | 47° |
| 2026-04-26 21:12 | 34.74321 | -92.18110 | 3418 ft | 101 kts | 48° |
| 2026-04-26 21:12 | 34.74813 | -92.17499 | 3473 ft | 103 kts | 50° |
| 2026-04-26 21:12 | 34.75289 | -92.16849 | 3509 ft | 102 kts | 52° |
| 2026-04-26 21:12 | 34.75747 | -92.16177 | 3532 ft | 102 kts | 52° |
| 2026-04-26 21:13 | 34.76197 | -92.15514 | 3569 ft | 102 kts | 53° |
| 2026-04-26 21:13 | 34.76649 | -92.14839 | 3586 ft | 104 kts | 53° |
| 2026-04-26 21:13 | 34.77149 | -92.14184 | 3610 ft | 104 kts | 47° |
| 2026-04-26 21:13 | 34.77670 | -92.13576 | 3617 ft | 105 kts | 46° |
| 2026-04-26 21:14 | 34.78199 | -92.12958 | 3630 ft | 104 kts | 47° |
| 2026-04-26 21:14 | 34.78720 | -92.12326 | 3622 ft | 106 kts | 48° |
| 2026-04-26 21:14 | 34.79257 | -92.11719 | 3630 ft | 106 kts | 46° |
| 2026-04-26 21:14 | 34.79817 | -92.11125 | 3631 ft | 106 kts | 41° |
| 2026-04-26 21:15 | 34.80387 | -92.10559 | 3621 ft | 107 kts | 43° |
| 2026-04-26 21:15 | 34.80959 | -92.09976 | 3623 ft | 107 kts | 41° |
| 2026-04-26 21:15 | 34.81522 | -92.09383 | 3620 ft | 106 kts | 46° |
| 2026-04-26 21:15 | 34.82051 | -92.08746 | 3607 ft | 107 kts | 48° |
| 2026-04-26 21:16 | 34.82579 | -92.08125 | 3617 ft | 105 kts | 47° |
| 2026-04-26 21:16 | 34.83101 | -92.07487 | 3601 ft | 106 kts | 49° |
| 2026-04-26 21:16 | 34.83618 | -92.06852 | 3602 ft | 105 kts | 46° |
| 2026-04-26 21:16 | 34.84161 | -92.06257 | 3598 ft | 105 kts | 47° |
| 2026-04-26 21:17 | 34.84658 | -92.05608 | 3601 ft | 104 kts | 49° |
| 2026-04-26 21:17 | 34.85158 | -92.04962 | 3609 ft | 104 kts | 50° |
| 2026-04-26 21:17 | 34.85652 | -92.04311 | 3604 ft | 105 kts | 51° |
| 2026-04-26 21:17 | 34.86141 | -92.03655 | 3615 ft | 103 kts | 49° |
| 2026-04-26 21:18 | 34.86654 | -92.03040 | 3614 ft | 105 kts | 47° |
| 2026-04-26 21:18 | 34.87147 | -92.02399 | 3655 ft | 102 kts | 52° |
| 2026-04-26 21:18 | 34.87602 | -92.01732 | 3667 ft | 103 kts | 55° |
| 2026-04-26 21:18 | 34.88045 | -92.01043 | 3647 ft | 106 kts | 52° |
| 2026-04-26 21:19 | 34.88582 | -92.00427 | 3647 ft | 106 kts | 40° |
| 2026-04-26 21:19 | 34.89209 | -91.99937 | 3645 ft | 107 kts | 33° |
| 2026-04-26 21:19 | 34.89832 | -91.99442 | 3643 ft | 106 kts | 37° |
| 2026-04-26 21:19 | 34.90516 | -91.99066 | 3635 ft | 106 kts | 32° |
| 2026-04-26 21:20 | 34.91118 | -91.98565 | 3645 ft | 104 kts | 37° |
| 2026-04-26 21:20 | 34.91718 | -91.98061 | 3647 ft | 105 kts | 37° |
| 2026-04-26 21:20 | 34.92313 | -91.97547 | 3648 ft | 105 kts | 39° |
| 2026-04-26 21:20 | 34.92919 | -91.97028 | 3648 ft | 106 kts | 39° |